Time;durP1;ratioP1;P1;durP2;ratioP2;P2;SDS_P1;SDS_P2;PMS_P1;PMS_P2;Temp;Humidity;BMP_temperature;BMP_pressure;BME280_temperature;BME280_humidity;BME280_pressure;Samples;Min_cycle;Max_cycle;Signal;HPM_P1;HPM_P2
2024/01/24 00:02:05;;;;;;;0.75;0.50;;;13.60;99.90;;;;;;5070089;28;20096;-81
2024/01/24 00:04:31;;;;;;;0.50;0.50;;;13.60;99.90;;;;;;5072082;28;20116;-84
2024/01/24 00:06:56;;;;;;;1.10;0.60;;;13.60;99.90;;;;;;5071908;28;20036;-82
2024/01/24 00:09:22;;;;;;;0.47;0.47;;;13.60;99.90;;;;;;5071316;28;20128;-82
2024/01/24 00:11:47;;;;;;;1.33;0.60;;;13.60;99.90;;;;;;5070161;28;20020;-82
2024/01/24 00:14:13;;;;;;;0.50;0.50;;;13.60;99.90;;;;;;5068738;28;20039;-81
2024/01/24 00:16:39;;;;;;;0.60;0.45;;;13.60;99.90;;;;;;5069626;28;20042;-81
2024/01/24 00:19:05;;;;;;;2.08;0.60;;;13.60;99.90;;;;;;5069797;28;20806;-82
2024/01/24 00:21:31;;;;;;;1.45;0.50;;;13.60;99.90;;;;;;5070732;28;20032;-81
2024/01/24 00:23:56;;;;;;;1.38;0.60;;;13.60;99.90;;;;;;5068636;28;20039;-81
2024/01/24 00:26:22;;;;;;;1.23;0.50;;;13.60;99.90;;;;;;5068860;28;20446;-85
2024/01/24 00:28:47;;;;;;;0.82;0.60;;;13.60;99.90;;;;;;5070966;28;20033;-87
2024/01/24 00:31:13;;;;;;;1.65;0.60;;;13.60;99.90;;;;;;5070212;28;20051;-87
2024/01/24 00:33:39;;;;;;;0.47;0.40;;;13.60;99.90;;;;;;5071006;28;20492;-87
2024/01/24 00:36:04;;;;;;;0.77;0.43;;;13.60;99.90;;;;;;5069467;28;20037;-87
2024/01/24 00:38:30;;;;;;;1.65;0.65;;;13.60;99.90;;;;;;5070399;28;20059;-87
2024/01/24 00:40:56;;;;;;;1.13;0.60;;;13.50;99.90;;;;;;5069765;28;20506;-85
2024/01/24 00:43:21;;;;;;;1.55;0.52;;;13.60;99.90;;;;;;5070057;28;20048;-84
2024/01/24 00:45:47;;;;;;;1.17;0.43;;;13.60;99.90;;;;;;5068788;28;20412;-86
2024/01/24 00:48:13;;;;;;;1.85;0.70;;;13.60;99.90;;;;;;5069033;28;20024;-87
2024/01/24 00:50:38;;;;;;;3.47;0.93;;;13.50;99.90;;;;;;5069698;28;20032;-85
2024/01/24 00:53:04;;;;;;;2.78;0.73;;;13.60;99.90;;;;;;5071462;28;20069;-84
2024/01/24 00:55:30;;;;;;;0.68;0.63;;;13.50;99.90;;;;;;5069594;28;20502;-84
2024/01/24 00:57:58;;;;;;;3.80;0.88;;;13.50;99.90;;;;;;5070582;28;20027;-81
2024/01/24 01:00:24;;;;;;;0.50;0.50;;;13.50;99.90;;;;;;5069369;28;20420;-84
2024/01/24 01:02:50;;;;;;;1.10;0.70;;;13.50;99.90;;;;;;5069096;28;20035;-81
2024/01/24 01:05:15;;;;;;;1.33;0.80;;;13.40;99.90;;;;;;5070282;28;20024;-82
2024/01/24 01:07:41;;;;;;;1.50;0.85;;;13.50;99.90;;;;;;5068798;28;20036;-86
2024/01/24 01:10:08;;;;;;;2.25;0.70;;;13.40;99.90;;;;;;5070989;28;20454;-85
2024/01/24 01:12:35;;;;;;;2.42;1.15;;;13.40;99.90;;;;;;5068276;28;20052;-84
2024/01/24 01:15:01;;;;;;;6.15;1.25;;;13.50;99.90;;;;;;5069020;28;20063;-85
2024/01/24 01:17:26;;;;;;;3.97;1.05;;;13.50;99.90;;;;;;5068793;28;20048;-86
2024/01/24 01:19:52;;;;;;;4.60;1.00;;;13.40;99.90;;;;;;5068678;28;20496;-85
2024/01/24 01:22:20;;;;;;;4.78;1.00;;;13.40;99.90;;;;;;5064593;28;20054;-86
2024/01/24 01:24:45;;;;;;;5.93;1.23;;;13.50;99.90;;;;;;5067707;28;20037;-83
2024/01/24 01:27:11;;;;;;;4.65;1.05;;;13.50;99.90;;;;;;5068774;28;20032;-87
2024/01/24 01:29:37;;;;;;;6.05;1.25;;;13.40;99.90;;;;;;5070522;28;20082;-87
2024/01/24 01:32:03;;;;;;;6.57;1.30;;;13.40;99.90;;;;;;5068869;28;20607;-89
2024/01/24 01:34:28;;;;;;;3.92;1.05;;;10.70;99.90;;;;;;5068828;28;20032;-88
2024/01/24 01:36:54;;;;;;;3.03;1.05;;;13.50;99.90;;;;;;5069010;28;20415;-84
2024/01/24 01:39:19;;;;;;;3.33;0.95;;;13.50;99.90;;;;;;5063693;28;20025;-85
2024/01/24 01:41:48;;;;;;;4.65;1.40;;;13.50;99.90;;;;;;5049690;28;20139;-85
2024/01/24 01:44:15;;;;;;;4.63;1.20;;;13.50;99.90;;;;;;5065423;28;20024;-87
2024/01/24 01:46:42;;;;;;;5.25;1.10;;;13.50;99.90;;;;;;5069540;28;20052;-83
2024/01/24 01:49:07;;;;;;;4.03;1.10;;;13.60;99.90;;;;;;5066246;28;20024;-88
2024/01/24 01:51:33;;;;;;;5.72;1.08;;;13.60;99.90;;;;;;5068877;28;20104;-87
2024/01/24 01:54:00;;;;;;;5.10;1.08;;;13.60;99.90;;;;;;5068444;28;20111;-83
2024/01/24 01:56:27;;;;;;;8.35;1.27;;;13.60;99.90;;;;;;5068648;28;20052;-82
2024/01/24 01:58:52;;;;;;;5.70;1.75;;;13.70;99.90;;;;;;5066274;28;20017;-83
2024/01/24 02:01:19;;;;;;;6.53;1.67;;;13.60;99.90;;;;;;5068328;28;20480;-87
2024/01/24 02:03:45;;;;;;;3.55;1.20;;;13.60;99.90;;;;;;5067877;28;20035;-86
2024/01/24 02:06:12;;;;;;;3.08;1.17;;;13.60;99.90;;;;;;5067542;28;20032;-84
2024/01/24 02:08:39;;;;;;;5.18;1.40;;;13.60;99.90;;;;;;5059185;28;20025;-88
2024/01/24 02:11:05;;;;;;;3.90;1.40;;;13.60;99.90;;;;;;5049232;28;20033;-83
2024/01/24 02:13:31;;;;;;;5.03;1.83;;;13.90;99.90;;;;;;5057273;28;20336;-87
2024/01/24 02:16:00;;;;;;;6.95;1.50;;;13.70;99.90;;;;;;5067243;28;20016;-83
2024/01/24 02:18:26;;;;;;;4.97;1.45;;;13.70;99.90;;;;;;5067305;28;20024;-85
2024/01/24 02:20:52;;;;;;;7.82;2.10;;;13.70;99.90;;;;;;5051144;28;20033;-86
2024/01/24 02:23:18;;;;;;;9.80;1.80;;;13.70;99.90;;;;;;5064303;28;20546;-86
2024/01/24 02:25:44;;;;;;;6.00;1.48;;;13.70;99.90;;;;;;5066928;28;20056;-87
2024/01/24 02:28:10;;;;;;;5.20;1.40;;;13.70;99.90;;;;;;5068280;28;20166;-85
2024/01/24 02:30:35;;;;;;;7.97;1.77;;;13.80;99.90;;;;;;5051129;28;20048;-85
2024/01/24 02:33:01;;;;;;;7.95;1.73;;;13.80;99.90;;;;;;5067165;28;20032;-85
2024/01/24 02:35:27;;;;;;;5.40;1.42;;;13.70;99.90;;;;;;5067938;28;20085;-85
2024/01/24 02:37:53;;;;;;;5.88;1.27;;;13.70;99.90;;;;;;5067732;28;20039;-82
2024/01/24 02:40:19;;;;;;;7.68;1.40;;;13.70;99.90;;;;;;5067909;28;20076;-85
2024/01/24 02:42:44;;;;;;;6.82;1.67;;;13.70;99.90;;;;;;5065763;28;20067;-85
2024/01/24 02:45:10;;;;;;;6.35;1.42;;;13.70;99.90;;;;;;5068633;28;20040;-84
2024/01/24 02:47:35;;;;;;;9.85;1.90;;;13.80;99.90;;;;;;5065608;28;20107;-85
2024/01/24 02:50:03;;;;;;;6.68;1.45;;;13.80;99.90;;;;;;5070985;28;20032;-85
2024/01/24 02:52:29;;;;;;;6.82;1.25;;;13.80;99.90;;;;;;5070888;28;20061;-85
2024/01/24 02:54:54;;;;;;;8.07;2.13;;;13.80;99.90;;;;;;5072795;28;20449;-84
2024/01/24 02:57:20;;;;;;;5.55;1.52;;;13.80;99.90;;;;;;5070648;28;20021;-85
2024/01/24 02:59:46;;;;;;;10.55;1.35;;;13.80;99.90;;;;;;5072543;28;20134;-86
2024/01/24 03:02:11;;;;;;;5.60;1.38;;;13.80;99.90;;;;;;5071757;28;20023;-85
2024/01/24 03:04:37;;;;;;;4.38;1.23;;;13.90;99.90;;;;;;5071804;28;20032;-86
2024/01/24 03:07:03;;;;;;;6.60;1.63;;;13.90;99.90;;;;;;5071803;28;20107;-86
2024/01/24 03:09:28;;;;;;;6.60;1.65;;;13.90;99.90;;;;;;5071340;28;20400;-85
2024/01/24 03:11:54;;;;;;;6.53;1.50;;;13.80;99.90;;;;;;5070177;28;20033;-85
2024/01/24 03:14:21;;;;;;;5.03;1.13;;;13.80;99.90;;;;;;5072041;28;20025;-86
2024/01/24 03:16:47;;;;;;;4.40;1.40;;;13.80;99.90;;;;;;5070714;28;20035;-85
2024/01/24 03:19:13;;;;;;;5.68;1.10;;;13.80;99.90;;;;;;5073110;28;20028;-87
2024/01/24 03:21:39;;;;;;;6.20;1.40;;;13.90;99.90;;;;;;5071121;28;20025;-86
2024/01/24 03:24:06;;;;;;;5.13;1.35;;;13.90;99.90;;;;;;5070096;28;20527;-85
2024/01/24 03:26:31;;;;;;;5.70;1.30;;;13.90;99.90;;;;;;5070728;28;20060;-86
2024/01/24 03:28:57;;;;;;;6.45;1.42;;;14.00;99.90;;;;;;5071127;28;20063;-86
2024/01/24 03:31:23;;;;;;;7.40;1.63;;;14.00;99.90;;;;;;5071032;28;20060;-85
2024/01/24 03:33:48;;;;;;;7.28;1.40;;;14.00;99.90;;;;;;5070925;28;20037;-87
2024/01/24 03:36:14;;;;;;;5.60;1.55;;;14.10;99.90;;;;;;5072823;28;20499;-85
2024/01/24 03:38:39;;;;;;;4.93;1.60;;;14.00;99.90;;;;;;5071011;28;20082;-86
2024/01/24 03:41:05;;;;;;;5.30;1.20;;;14.00;99.90;;;;;;5069535;28;20802;-84
2024/01/24 03:43:30;;;;;;;5.60;1.40;;;14.00;99.90;;;;;;5067712;28;20024;-82
2024/01/24 03:45:56;;;;;;;5.43;1.30;;;14.00;99.90;;;;;;5071856;28;20039;-82
2024/01/24 03:48:22;;;;;;;6.05;1.48;;;14.00;99.90;;;;;;5070841;28;20029;-83
2024/01/24 03:50:48;;;;;;;4.38;1.42;;;14.10;99.90;;;;;;5066101;28;20012;-83
2024/01/24 03:53:13;;;;;;;3.85;1.17;;;14.10;99.90;;;;;;5070780;28;20032;-82
2024/01/24 03:55:39;;;;;;;6.00;1.50;;;14.00;99.90;;;;;;5070289;28;20518;-83
2024/01/24 03:58:04;;;;;;;4.30;1.33;;;14.00;99.90;;;;;;5069039;28;20040;-86
2024/01/24 04:00:30;;;;;;;5.75;1.23;;;14.00;99.90;;;;;;5067894;28;20106;-82
2024/01/24 04:02:55;;;;;;;2.55;1.10;;;14.00;99.90;;;;;;5070566;28;20029;-82
2024/01/24 04:05:21;;;;;;;8.77;1.65;;;14.00;99.90;;;;;;5071519;28;20393;-82
2024/01/24 04:07:47;;;;;;;3.30;0.82;;;14.00;99.90;;;;;;5070222;28;20056;-82
2024/01/24 04:10:13;;;;;;;5.53;1.67;;;14.00;99.90;;;;;;5072239;28;20024;-81
2024/01/24 04:12:38;;;;;;;4.15;1.25;;;14.00;99.90;;;;;;5066779;28;20121;-81
2024/01/24 04:15:06;;;;;;;3.58;1.33;;;14.00;99.90;;;;;;5056908;28;20025;-82
2024/01/24 04:17:32;;;;;;;3.70;1.10;;;14.00;99.90;;;;;;5070188;28;20055;-88
2024/01/24 04:19:57;;;;;;;4.72;1.23;;;14.00;99.90;;;;;;5070386;28;20064;-81
2024/01/24 04:22:23;;;;;;;7.82;1.35;;;14.00;99.90;;;;;;5070914;28;20036;-81
2024/01/24 04:24:48;;;;;;;2.85;1.08;;;14.00;99.90;;;;;;5071297;28;20021;-82
2024/01/24 04:27:14;;;;;;;7.15;1.30;;;14.00;99.90;;;;;;5071787;28;20031;-84
2024/01/24 04:29:42;;;;;;;3.63;1.00;;;14.10;99.90;;;;;;5070660;28;20062;-84
2024/01/24 04:32:08;;;;;;;5.05;1.55;;;14.00;99.90;;;;;;5070033;28;20044;-83
2024/01/24 04:34:33;;;;;;;5.03;1.23;;;14.10;99.90;;;;;;5071169;28;20064;-84
2024/01/24 04:36:59;;;;;;;3.20;1.00;;;14.10;99.90;;;;;;5069162;28;20033;-83
2024/01/24 04:39:24;;;;;;;7.15;1.35;;;14.10;99.90;;;;;;5070356;28;20115;-83
2024/01/24 04:41:50;;;;;;;4.78;1.10;;;14.10;99.90;;;;;;5070800;28;20028;-82
2024/01/24 04:44:16;;;;;;;4.07;1.33;;;14.00;99.90;;;;;;5071184;28;20090;-82
2024/01/24 04:46:41;;;;;;;3.30;1.10;;;14.00;99.90;;;;;;5070466;28;20025;-82
2024/01/24 04:49:08;;;;;;;4.43;1.10;;;14.00;99.90;;;;;;5071616;28;20021;-81
2024/01/24 04:51:34;;;;;;;4.55;1.20;;;14.00;99.90;;;;;;5069889;28;20059;-82
2024/01/24 04:54:00;;;;;;;3.50;0.90;;;14.00;99.90;;;;;;5070058;28;20119;-85
2024/01/24 04:56:27;;;;;;;5.00;1.25;;;14.00;99.90;;;;;;5070379;28;20020;-82
2024/01/24 04:58:52;;;;;;;4.38;1.02;;;14.00;99.90;;;;;;5068580;28;20384;-83
2024/01/24 05:01:18;;;;;;;3.25;1.30;;;14.00;99.90;;;;;;5070784;28;20502;-82
2024/01/24 05:03:44;;;;;;;4.43;1.08;;;14.10;99.90;;;;;;5069786;28;20020;-86
2024/01/24 05:06:11;;;;;;;3.60;1.30;;;14.00;99.90;;;;;;5070022;28;20413;-82
2024/01/24 05:08:38;;;;;;;6.65;1.40;;;14.00;99.90;;;;;;5078339;28;20020;-81
2024/01/24 05:11:04;;;;;;;3.47;1.05;;;14.00;99.90;;;;;;5090050;28;20089;-83
2024/01/24 05:13:31;;;;;;;2.67;1.00;;;13.90;99.90;;;;;;5072837;28;20021;-86
2024/01/24 05:15:57;;;;;;;4.45;1.20;;;13.90;99.90;;;;;;5070095;28;20016;-85
2024/01/24 05:18:23;;;;;;;3.00;1.00;;;13.90;99.90;;;;;;5076445;28;20498;-81
2024/01/24 05:20:49;;;;;;;3.67;1.08;;;13.90;99.90;;;;;;5087971;28;20036;-83
2024/01/24 05:23:14;;;;;;;3.92;1.05;;;14.00;99.90;;;;;;5069161;28;20103;-84
2024/01/24 05:25:42;;;;;;;5.30;0.90;;;14.20;99.90;;;;;;5069983;28;20029;-83
2024/01/24 05:28:09;;;;;;;4.70;0.80;;;14.30;99.90;;;;;;5069064;28;20043;-83
2024/01/24 05:30:34;;;;;;;2.60;0.50;;;14.30;99.90;;;;;;5069506;28;20450;-83
2024/01/24 05:33:00;;;;;;;4.38;0.60;;;14.30;99.90;;;;;;5050983;28;20029;-84
2024/01/24 05:35:26;;;;;;;0.40;0.40;;;14.20;99.90;;;;;;5067001;28;20037;-85
2024/01/24 05:37:52;;;;;;;1.10;0.45;;;14.10;99.90;;;;;;5064943;28;20107;-85
2024/01/24 05:40:17;;;;;;;1.95;0.68;;;14.00;99.90;;;;;;5064417;28;20037;-85
2024/01/24 05:42:44;;;;;;;0.70;0.52;;;14.10;99.90;;;;;;5064875;28;20024;-87
2024/01/24 05:45:11;;;;;;;3.35;0.82;;;13.90;99.90;;;;;;5068730;28;20055;-84
2024/01/24 05:47:37;;;;;;;2.38;0.47;;;13.90;99.90;;;;;;5066958;28;20116;-84
2024/01/24 05:50:03;;;;;;;2.53;0.50;;;13.90;99.90;;;;;;5051786;28;20150;-86
2024/01/24 05:52:28;;;;;;;2.85;0.73;;;13.90;99.90;;;;;;5057690;28;20036;-85
2024/01/24 05:54:54;;;;;;;0.47;0.47;;;13.90;99.90;;;;;;5068984;28;20118;-85
2024/01/24 05:57:21;;;;;;;1.50;0.60;;;13.90;99.90;;;;;;5070191;28;20053;-85
2024/01/24 05:59:47;;;;;;;2.42;0.65;;;14.00;99.90;;;;;;5070190;28;20047;-85
2024/01/24 06:02:13;;;;;;;1.45;0.80;;;13.90;99.90;;;;;;5068939;28;20060;-85
2024/01/24 06:04:39;;;;;;;1.90;0.70;;;14.00;99.90;;;;;;5067684;28;20085;-84
2024/01/24 06:07:06;;;;;;;1.42;0.40;;;14.00;99.90;;;;;;5068531;28;20453;-85
2024/01/24 06:09:31;;;;;;;1.52;0.70;;;13.90;99.90;;;;;;5067409;28;20028;-85
2024/01/24 06:11:58;;;;;;;0.68;0.63;;;14.10;99.90;;;;;;5067558;28;20032;-84
2024/01/24 06:14:23;;;;;;;2.90;0.70;;;13.90;99.90;;;;;;5069002;28;20086;-85
2024/01/24 06:16:49;;;;;;;1.90;0.70;;;13.90;99.90;;;;;;5069525;28;20056;-84
2024/01/24 06:19:15;;;;;;;3.83;0.73;;;13.90;99.90;;;;;;5068952;28;20039;-84
2024/01/24 06:21:40;;;;;;;2.72;0.80;;;14.00;99.90;;;;;;5068959;28;20024;-84
2024/01/24 06:24:06;;;;;;;0.93;0.70;;;14.20;99.90;;;;;;5068272;28;20074;-84
2024/01/24 06:26:32;;;;;;;2.65;1.10;;;13.90;99.90;;;;;;5068908;28;20389;-84
2024/01/24 06:28:58;;;;;;;1.73;0.73;;;14.00;99.90;;;;;;5068998;28;20036;-83
2024/01/24 06:31:23;;;;;;;3.00;0.82;;;14.00;99.90;;;;;;5069567;28;20032;-83
2024/01/24 06:33:49;;;;;;;2.15;0.70;;;13.90;99.90;;;;;;5069318;28;20077;-84
2024/01/24 06:36:15;;;;;;;1.33;0.63;;;13.90;99.90;;;;;;5067992;28;20032;-83
2024/01/24 06:38:40;;;;;;;1.75;0.70;;;13.90;99.90;;;;;;5069043;28;20511;-84
2024/01/24 06:41:06;;;;;;;1.67;0.57;;;13.80;99.90;;;;;;5068881;28;20039;-84
2024/01/24 06:43:32;;;;;;;3.75;0.93;;;13.90;99.90;;;;;;5068538;28;20032;-84
2024/01/24 06:45:57;;;;;;;0.77;0.70;;;13.90;99.90;;;;;;5068838;28;20468;-83
2024/01/24 06:48:23;;;;;;;2.85;0.75;;;14.00;99.90;;;;;;5069776;28;20029;-84
2024/01/24 06:50:48;;;;;;;2.08;0.75;;;14.00;99.90;;;;;;5068824;28;20024;-84
2024/01/24 06:53:14;;;;;;;0.88;0.68;;;13.90;99.90;;;;;;5068509;28;20048;-84
2024/01/24 06:55:44;;;;;;;1.80;0.52;;;14.00;99.90;;;;;;5068865;28;20016;-84
2024/01/24 06:58:09;;;;;;;2.47;0.80;;;13.90;99.90;;;;;;5068855;28;20082;-83
2024/01/24 07:00:35;;;;;;;3.10;0.73;;;13.80;99.90;;;;;;5068419;28;20532;-84
2024/01/24 07:03:01;;;;;;;3.67;0.60;;;13.90;99.90;;;;;;5068782;28;20545;-84
2024/01/24 07:05:27;;;;;;;5.38;0.85;;;13.80;99.90;;;;;;5068608;28;20040;-83
2024/01/24 07:07:52;;;;;;;4.65;0.88;;;13.70;99.90;;;;;;5069560;28;20054;-83
2024/01/24 07:10:18;;;;;;;2.22;0.90;;;13.70;99.90;;;;;;5068720;28;20107;-83
2024/01/24 07:12:46;;;;;;;2.58;0.93;;;13.70;99.90;;;;;;5078484;28;20031;-83
2024/01/24 07:15:12;;;;;;;4.78;1.00;;;13.70;99.90;;;;;;5088886;28;20095;-84
2024/01/24 07:17:38;;;;;;;5.60;1.30;;;13.70;99.90;;;;;;5088706;28;20115;-83
2024/01/24 07:20:04;;;;;;;3.97;1.08;;;13.70;99.90;;;;;;5082436;28;20040;-83
2024/01/24 07:22:30;;;;;;;2.10;0.93;;;13.60;99.90;;;;;;5068545;28;20028;-83
2024/01/24 07:24:56;;;;;;;7.18;1.30;;;13.90;99.90;;;;;;5069191;28;20033;-83
2024/01/24 07:27:21;;;;;;;5.13;1.10;;;13.70;99.90;;;;;;5069326;28;20024;-83
2024/01/24 07:29:47;;;;;;;2.13;1.00;;;13.80;99.90;;;;;;5067887;28;20086;-84
2024/01/24 07:32:12;;;;;;;2.95;1.02;;;13.70;99.90;;;;;;5068452;28;20051;-83
2024/01/24 07:34:38;;;;;;;5.60;1.10;;;13.70;99.90;;;;;;5067143;28;20024;-83
2024/01/24 07:37:05;;;;;;;1.83;1.02;;;13.80;99.90;;;;;;5071741;28;20062;-84
2024/01/24 07:39:30;;;;;;;3.70;1.10;;;13.80;99.90;;;;;;5071634;28;20024;-82
2024/01/24 07:41:56;;;;;;;4.18;1.00;;;13.80;99.90;;;;;;5052831;28;20079;-83
2024/01/24 07:44:22;;;;;;;3.15;1.10;;;13.80;99.90;;;;;;5052826;28;20024;-83
2024/01/24 07:46:48;;;;;;;5.13;1.17;;;13.80;99.90;;;;;;5051990;28;20023;-84
2024/01/24 07:49:13;;;;;;;5.80;0.90;;;13.80;99.90;;;;;;5051802;28;20043;-83
2024/01/24 07:51:41;;;;;;;3.30;1.00;;;13.80;99.90;;;;;;5069887;28;20028;-84
2024/01/24 07:54:07;;;;;;;3.07;0.97;;;13.90;99.90;;;;;;5071987;28;20039;-83
2024/01/24 07:56:33;;;;;;;4.43;1.20;;;13.90;99.90;;;;;;5071799;28;20267;-84
2024/01/24 07:58:59;;;;;;;2.78;1.10;;;13.90;99.90;;;;;;5071715;28;20028;-83
2024/01/24 08:01:24;;;;;;;2.55;0.95;;;13.90;99.90;;;;;;5070856;28;20040;-84
2024/01/24 08:03:50;;;;;;;4.80;1.15;;;13.90;99.90;;;;;;5071525;28;20023;-84
2024/01/24 08:06:16;;;;;;;3.38;0.90;;;13.90;99.90;;;;;;5071571;28;20036;-83
2024/01/24 08:08:41;;;;;;;8.07;1.30;;;13.90;99.90;;;;;;5071592;28;20017;-84
2024/01/24 08:11:07;;;;;;;6.88;1.30;;;13.90;99.90;;;;;;5071100;28;20060;-83
2024/01/24 08:13:33;;;;;;;5.38;1.10;;;13.90;99.90;;;;;;5070081;28;20039;-83
2024/01/24 08:15:59;;;;;;;2.45;1.00;;;14.00;99.90;;;;;;5072166;28;20029;-83
2024/01/24 08:18:24;;;;;;;4.70;1.10;;;13.30;99.90;;;;;;5071991;28;20031;-84
2024/01/24 08:20:52;;;;;;;4.90;1.85;;;14.10;99.90;;;;;;5070599;28;20062;-83
2024/01/24 08:23:18;;;;;;;5.95;2.50;;;14.00;99.90;;;;;;5071058;28;20031;-84
2024/01/24 08:25:44;;;;;;;7.28;2.60;;;14.10;99.90;;;;;;5071282;28;20028;-83
2024/01/24 08:28:10;;;;;;;6.60;1.90;;;14.10;99.90;;;;;;5071011;28;20036;-84
2024/01/24 08:30:35;;;;;;;6.57;1.63;;;14.00;99.90;;;;;;5075623;28;20067;-83
2024/01/24 08:33:01;;;;;;;3.38;1.90;;;14.30;99.90;;;;;;5079715;28;20032;-83
2024/01/24 08:35:27;;;;;;;8.48;1.50;;;14.10;99.90;;;;;;5071794;28;20389;-84
2024/01/24 08:37:52;;;;;;;8.02;1.75;;;14.10;99.90;;;;;;5071043;28;20060;-84
2024/01/24 08:40:21;;;;;;;5.55;1.35;;;14.10;99.90;;;;;;5070519;28;20395;-84
2024/01/24 08:42:46;;;;;;;7.60;1.40;;;14.10;99.90;;;;;;5070796;28;20498;-83
2024/01/24 08:45:12;;;;;;;8.07;1.38;;;14.10;99.90;;;;;;5070779;28;20044;-84
2024/01/24 08:47:38;;;;;;;3.70;1.10;;;14.10;99.90;;;;;;5070344;28;20531;-84
2024/01/24 08:50:04;;;;;;;5.75;1.40;;;14.10;99.90;;;;;;5070478;28;20027;-83
2024/01/24 08:52:34;;;;;;;5.78;1.10;;;14.20;99.90;;;;;;5071550;28;20028;-83
2024/01/24 08:55:01;;;;;;;5.55;1.42;;;14.20;99.90;;;;;;5071540;28;20017;-84
2024/01/24 08:57:26;;;;;;;7.70;1.60;;;14.40;99.90;;;;;;5071430;28;20545;-84
2024/01/24 08:59:52;;;;;;;4.07;1.92;;;14.30;99.90;;;;;;5070365;28;20033;-84
2024/01/24 09:02:18;;;;;;;3.97;1.48;;;14.30;99.90;;;;;;5068911;28;20078;-84
2024/01/24 09:04:46;;;;;;;5.50;1.70;;;14.30;99.90;;;;;;5069173;28;20017;-84
2024/01/24 09:07:14;;;;;;;10.40;2.00;;;14.30;99.90;;;;;;5069102;28;20033;-84
2024/01/24 09:09:40;;;;;;;;;;;14.40;99.90;;;;;;5070812;28;20028;-84
2024/01/24 09:12:06;;;;;;;5.20;1.65;;;14.40;99.90;;;;;;5069911;28;19999;-84
2024/01/24 09:14:32;;;;;;;3.22;1.33;;;14.30;99.90;;;;;;5070962;28;20063;-84
2024/01/24 09:16:57;;;;;;;4.50;1.42;;;14.00;99.90;;;;;;5070912;28;20028;-84
2024/01/24 09:19:23;;;;;;;3.33;1.67;;;14.40;99.90;;;;;;5070042;28;20035;-84
2024/01/24 09:21:49;;;;;;;4.68;1.50;;;14.30;99.90;;;;;;5069847;28;20404;-84
2024/01/24 09:24:14;;;;;;;4.85;1.45;;;14.40;99.90;;;;;;5088670;28;20032;-84
2024/01/24 09:26:40;;;;;;;4.13;1.25;;;14.50;99.90;;;;;;5090187;28;20495;-83
2024/01/24 09:29:06;;;;;;;3.33;1.13;;;14.50;99.90;;;;;;5090119;28;20078;-83
2024/01/24 09:31:31;;;;;;;4.78;1.17;;;14.50;99.90;;;;;;5090505;28;20039;-84
2024/01/24 09:33:57;;;;;;;5.30;1.60;;;14.60;99.90;;;;;;5090147;28;20506;-83
2024/01/24 09:36:27;;;;;;;3.78;1.63;;;14.60;99.90;;;;;;5090042;28;20361;-85
2024/01/24 09:38:53;;;;;;;6.13;1.40;;;14.60;99.90;;;;;;5090180;28;20809;-83
2024/01/24 09:41:21;;;;;;;6.45;2.05;;;14.60;99.90;;;;;;5080849;28;20072;-84
2024/01/24 09:43:48;;;;;;;6.13;1.58;;;14.60;99.90;;;;;;5069608;28;20029;-83
2024/01/24 09:46:19;;;;;;;5.65;1.50;;;14.50;99.90;;;;;;5069658;28;20028;-83
2024/01/24 09:48:46;;;;;;;6.95;2.20;;;14.50;99.90;;;;;;5068298;28;20403;-84
2024/01/24 09:51:13;;;;;;;5.18;1.63;;;14.50;99.90;;;;;;5069316;28;20032;-85
2024/01/24 09:53:39;;;;;;;2.65;1.40;;;14.50;99.90;;;;;;5069638;28;20052;-84
2024/01/24 09:56:06;;;;;;;4.25;1.25;;;14.50;99.90;;;;;;5069529;28;20017;-83
2024/01/24 09:58:32;;;;;;;5.50;1.50;;;14.40;99.90;;;;;;5068361;28;20024;-83
2024/01/24 10:01:00;;;;;;;4.63;1.27;;;14.50;99.90;;;;;;5069111;28;20036;-84
2024/01/24 10:03:27;;;;;;;9.05;1.50;;;14.50;99.90;;;;;;5069445;28;20074;-83
2024/01/24 10:05:54;;;;;;;4.93;1.40;;;14.40;99.90;;;;;;5069385;28;20027;-84
2024/01/24 10:08:20;;;;;;;3.35;1.30;;;14.50;99.90;;;;;;5069204;28;20263;-84
2024/01/24 10:10:46;;;;;;;6.65;1.40;;;14.60;99.90;;;;;;5068758;28;20040;-84
2024/01/24 10:13:11;;;;;;;4.63;1.63;;;14.70;99.90;;;;;;5087956;28;20499;-84
2024/01/24 10:15:37;;;;;;;3.08;1.13;;;14.80;99.90;;;;;;5089512;28;20027;-83
2024/01/24 10:18:04;;;;;;;5.70;1.42;;;14.80;99.90;;;;;;5090249;28;20027;-84
2024/01/24 10:20:29;;;;;;;4.97;1.60;;;14.90;99.90;;;;;;5089086;28;20031;-83
2024/01/24 10:22:55;;;;;;;4.35;1.40;;;14.90;99.90;;;;;;5067762;28;20032;-83
2024/01/24 10:25:21;;;;;;;4.90;1.55;;;15.00;99.90;;;;;;5069172;28;20094;-84
2024/01/24 10:27:47;;;;;;;6.78;1.75;;;14.90;99.90;;;;;;5068991;28;20032;-83
2024/01/24 10:30:15;;;;;;;3.75;1.30;;;15.00;99.90;;;;;;5068674;28;20040;-84
2024/01/24 10:32:47;;;;;;;7.15;1.55;;;15.00;99.90;;;;;;5068496;28;20055;-84
2024/01/24 10:35:12;;;;;;;11.13;2.00;;;14.90;99.90;;;;;;5069283;28;20031;-84
2024/01/24 10:37:41;;;;;;;8.80;1.60;;;15.00;99.90;;;;;;5069132;28;20107;-83
2024/01/24 10:40:11;;;;;;;;;;;15.10;99.90;;;;;;5069878;28;20036;-83
2024/01/24 10:42:40;;;;;;;5.70;1.60;;;15.00;99.90;;;;;;5068757;28;20314;-83
2024/01/24 10:45:06;;;;;;;3.90;1.30;;;14.90;99.90;;;;;;5069685;28;20112;-83
2024/01/24 10:47:35;;;;;;;5.85;1.35;;;15.00;99.90;;;;;;5069903;28;20020;-83
2024/01/24 10:50:06;;;;;;;10.98;2.70;;;14.90;99.90;;;;;;5068841;28;20017;-83
2024/01/24 10:52:33;;;;;;;5.78;2.10;;;14.90;99.90;;;;;;5083156;28;20032;-84
2024/01/24 10:55:04;;;;;;;9.82;2.42;;;15.00;99.90;;;;;;5048719;28;20025;-84
2024/01/24 10:57:32;;;;;;;9.15;2.00;;;15.00;99.90;;;;;;5048864;28;20535;-83
2024/01/24 10:59:57;;;;;;;;;;;15.00;99.90;;;;;;5064382;28;20270;-84
2024/01/24 11:02:23;;;;;;;7.82;2.53;;;15.10;99.90;;;;;;5063520;28;19999;-84
2024/01/24 11:04:51;;;;;;;8.10;2.22;;;15.20;99.90;;;;;;5068799;28;20028;-84
2024/01/24 11:07:26;;;;;;;11.15;2.63;;;15.10;99.90;;;;;;5068589;28;20082;-83
2024/01/24 11:10:01;;;;;;;12.05;1.98;;;15.10;99.90;;;;;;5070460;28;20098;-83
2024/01/24 11:12:26;;;;;;;5.68;1.83;;;15.10;99.90;;;;;;5072238;28;20075;-84
2024/01/24 11:14:52;;;;;;;7.50;1.92;;;15.20;99.90;;;;;;5072473;28;20060;-84
2024/01/24 11:17:19;;;;;;;7.53;1.60;;;15.30;99.90;;;;;;5072490;28;20043;-83
2024/01/24 11:19:46;;;;;;;5.80;1.48;;;15.40;99.90;;;;;;5071037;28;20029;-84
2024/01/24 11:22:23;;;;;;;8.48;2.00;;;15.40;99.90;;;;;;5070803;28;20365;-84
2024/01/24 11:24:49;;;;;;;7.82;1.85;;;15.50;99.90;;;;;;5072500;28;20048;-84
2024/01/24 11:27:33;;;;;;;12.77;2.70;;;15.50;99.90;;;;;;5072399;28;20024;-84
2024/01/24 11:30:03;;;;;;;5.70;1.55;;;15.60;99.90;;;;;;5072057;28;20060;-85
2024/01/24 11:32:55;;;;;;;6.20;1.63;;;15.60;99.90;;;;;;5071834;28;20032;-84
2024/01/24 11:35:37;;;;;;;7.90;1.92;;;15.60;99.90;;;;;;5072231;28;20083;-84
2024/01/24 11:38:22;;;;;;;7.15;1.90;;;15.50;99.90;;;;;;5072063;28;20070;-84
2024/01/24 11:40:51;;;;;;;7.07;1.85;;;15.50;99.90;;;;;;5071978;28;20033;-84
2024/01/24 11:43:32;;;;;;;3.90;1.83;;;15.60;99.90;;;;;;5071538;28;20029;-84
2024/01/24 11:46:03;;;;;;;6.55;1.48;;;15.50;99.90;;;;;;5071899;28;20485;-83
2024/01/24 11:48:30;;;;;;;6.90;1.65;;;15.50;99.90;;;;;;5072232;28;20032;-84
2024/01/24 11:51:01;;;;;;;8.52;2.17;;;15.40;99.90;;;;;;5071712;28;20108;-83
2024/01/24 11:53:28;;;;;;;10.93;2.03;;;15.50;99.90;;;;;;5071934;28;20025;-84
2024/01/24 11:55:59;;;;;;;6.20;2.00;;;15.50;99.90;;;;;;5071922;28;20024;-83
2024/01/24 11:58:26;;;;;;;15.18;2.80;;;15.50;99.90;;;;;;5071681;28;20473;-83
2024/01/24 12:01:03;;;;;;;6.85;1.80;;;15.40;99.90;;;;;;5071584;28;20380;-83
2024/01/24 12:03:29;;;;;;;8.43;1.67;;;15.40;99.90;;;;;;5071574;28;20032;-83
2024/01/24 12:05:55;;;;;;;10.80;2.55;;;15.50;99.90;;;;;;5071500;28;20353;-83
2024/01/24 12:08:21;;;;;;;7.85;1.73;;;15.40;99.90;;;;;;5071599;28;20055;-84
2024/01/24 12:10:47;;;;;;;8.43;1.63;;;15.30;99.90;;;;;;5071567;28;20500;-84
2024/01/24 12:13:16;;;;;;;8.68;1.92;;;15.40;99.90;;;;;;5071206;28;20103;-83
2024/01/24 12:15:43;;;;;;;6.95;1.92;;;15.40;99.90;;;;;;5084479;28;20093;-84
2024/01/24 12:18:10;;;;;;;10.05;1.80;;;15.40;99.90;;;;;;5092378;28;20031;-83
2024/01/24 12:20:36;;;;;;;9.40;2.33;;;15.50;99.90;;;;;;5091774;28;20472;-84
2024/01/24 12:23:03;;;;;;;9.80;2.20;;;15.50;99.90;;;;;;5074994;28;20024;-84
2024/01/24 12:25:29;;;;;;;7.57;1.80;;;15.60;99.90;;;;;;5071300;28;20119;-83
2024/01/24 12:27:57;;;;;;;8.35;1.95;;;15.60;99.90;;;;;;5071216;28;20104;-83
2024/01/24 12:30:24;;;;;;;8.25;2.10;;;15.50;99.90;;;;;;5078491;28;20035;-84
2024/01/24 12:32:55;;;;;;;6.57;1.70;;;15.50;99.90;;;;;;5091220;28;20016;-84
2024/01/24 12:35:20;;;;;;;7.40;1.58;;;15.40;99.90;;;;;;5091273;28;20483;-83
2024/01/24 12:37:46;;;;;;;7.50;1.67;;;15.50;99.90;;;;;;5091284;28;20073;-83
2024/01/24 12:40:12;;;;;;;5.97;1.60;;;15.50;99.90;;;;;;5083279;28;20032;-83
2024/01/24 12:42:39;;;;;;;4.50;1.30;;;15.50;99.90;;;;;;5071755;28;20146;-83
2024/01/24 12:45:10;;;;;;;5.55;1.70;;;15.60;99.90;;;;;;5070873;28;20059;-83